sensor_id;sensor_type;location;lat;lon;timestamp;pressure;altitude;pressure_sealevel;temperature;humidity
46718;BME280;32448;44.960;-0.698;2023-06-04T00:00:11;101135.44;;;19.50;100.00
46718;BME280;32448;44.960;-0.698;2023-06-04T00:02:39;101132.13;;;19.31;100.00
46718;BME280;32448;44.960;-0.698;2023-06-04T00:05:07;101137.44;;;19.30;100.00
46718;BME280;32448;44.960;-0.698;2023-06-04T00:07:36;101150.81;;;19.20;100.00
46718;BME280;32448;44.960;-0.698;2023-06-04T00:10:04;101146.34;;;19.24;100.00
46718;BME280;32448;44.960;-0.698;2023-06-04T00:12:31;101135.81;;;19.18;100.00
46718;BME280;32448;44.960;-0.698;2023-06-04T00:14:58;101139.34;;;19.20;100.00
46718;BME280;32448;44.960;-0.698;2023-06-04T00:17:25;101134.06;;;19.18;100.00
46718;BME280;32448;44.960;-0.698;2023-06-04T00:19:53;101129.56;;;19.23;100.00
46718;BME280;32448;44.960;-0.698;2023-06-04T00:22:20;101123.34;;;19.27;100.00
46718;BME280;32448;44.960;-0.698;2023-06-04T00:24:49;101108.19;;;19.36;100.00
46718;BME280;32448;44.960;-0.698;2023-06-04T00:27:16;101104.78;;;19.27;100.00
46718;BME280;32448;44.960;-0.698;2023-06-04T00:29:43;101092.44;;;19.25;100.00
46718;BME280;32448;44.960;-0.698;2023-06-04T00:32:10;101081.78;;;19.28;100.00
46718;BME280;32448;44.960;-0.698;2023-06-04T00:34:37;101080.91;;;19.27;100.00
46718;BME280;32448;44.960;-0.698;2023-06-04T00:37:05;101072.09;;;19.25;100.00
46718;BME280;32448;44.960;-0.698;2023-06-04T00:39:32;101065.94;;;19.25;100.00
46718;BME280;32448;44.960;-0.698;2023-06-04T00:42:01;101051.72;;;19.31;100.00
46718;BME280;32448;44.960;-0.698;2023-06-04T00:44:32;101048.19;;;19.30;100.00
46718;BME280;32448;44.960;-0.698;2023-06-04T00:47:00;101045.47;;;19.35;100.00
46718;BME280;32448;44.960;-0.698;2023-06-04T00:49:33;101048.19;;;19.30;100.00
46718;BME280;32448;44.960;-0.698;2023-06-04T00:52:01;101057.00;;;19.32;100.00
46718;BME280;32448;44.960;-0.698;2023-06-04T00:54:28;101055.25;;;19.33;100.00
46718;BME280;32448;44.960;-0.698;2023-06-04T00:56:55;101054.38;;;19.32;100.00
46718;BME280;32448;44.960;-0.698;2023-06-04T00:59:23;101056.22;;;19.24;100.00
46718;BME280;32448;44.960;-0.698;2023-06-04T01:01:58;101050.88;;;19.27;100.00
46718;BME280;32448;44.960;-0.698;2023-06-04T01:04:37;101045.69;;;19.21;100.00
46718;BME280;32448;44.960;-0.698;2023-06-04T01:07:08;101036.06;;;19.14;100.00
46718;BME280;32448;44.960;-0.698;2023-06-04T01:09:36;101034.28;;;19.14;100.00
46718;BME280;32448;44.960;-0.698;2023-06-04T01:12:04;101041.38;;;19.12;100.00
46718;BME280;32448;44.960;-0.698;2023-06-04T01:14:32;101038.81;;;19.08;100.00
46718;BME280;32448;44.960;-0.698;2023-06-04T01:17:07;101052.03;;;19.09;100.00
46718;BME280;32448;44.960;-0.698;2023-06-04T01:24:53;101045.97;;;19.00;100.00
46718;BME280;32448;44.960;-0.698;2023-06-04T01:27:22;101047.78;;;18.96;100.00
46718;BME280;32448;44.960;-0.698;2023-06-04T01:29:50;101049.59;;;18.92;100.00
46718;BME280;32448;44.960;-0.698;2023-06-04T01:32:18;101058.53;;;18.85;100.00
46718;BME280;32448;44.960;-0.698;2023-06-04T01:34:46;101062.94;;;18.83;100.00
46718;BME280;32448;44.960;-0.698;2023-06-04T01:37:13;101063.81;;;18.85;100.00
46718;BME280;32448;44.960;-0.698;2023-06-04T01:39:40;101058.53;;;18.82;100.00
46718;BME280;32448;44.960;-0.698;2023-06-04T01:42:08;101055.88;;;18.84;100.00
46718;BME280;32448;44.960;-0.698;2023-06-04T01:44:35;101056.78;;;18.83;100.00
46718;BME280;32448;44.960;-0.698;2023-06-04T01:47:02;101055.94;;;18.79;100.00
46718;BME280;32448;44.960;-0.698;2023-06-04T01:49:32;101061.28;;;18.76;100.00
46718;BME280;32448;44.960;-0.698;2023-06-04T01:52:00;101056.94;;;18.68;100.00
46718;BME280;32448;44.960;-0.698;2023-06-04T01:54:27;101051.66;;;18.68;100.00
46718;BME280;32448;44.960;-0.698;2023-06-04T01:56:56;101059.66;;;18.63;100.00
46718;BME280;32448;44.960;-0.698;2023-06-04T01:59:23;101072.13;;;18.52;100.00
46718;BME280;32448;44.960;-0.698;2023-06-04T02:01:51;101071.25;;;18.51;100.00
46718;BME280;32448;44.960;-0.698;2023-06-04T02:04:18;101074.81;;;18.46;100.00
46718;BME280;32448;44.960;-0.698;2023-06-04T02:06:45;101077.44;;;18.47;100.00
46718;BME280;32448;44.960;-0.698;2023-06-04T02:09:13;101087.25;;;18.39;100.00
46718;BME280;32448;44.960;-0.698;2023-06-04T02:11:40;101089.91;;;18.38;100.00
46718;BME280;32448;44.960;-0.698;2023-06-04T02:14:07;101090.75;;;18.43;100.00
46718;BME280;32448;44.960;-0.698;2023-06-04T02:16:35;101091.66;;;18.40;100.00
46718;BME280;32448;44.960;-0.698;2023-06-04T02:19:02;101088.09;;;18.44;100.00
46718;BME280;32448;44.960;-0.698;2023-06-04T02:21:29;101092.66;;;18.27;100.00
46718;BME280;32448;44.960;-0.698;2023-06-04T02:23:57;101103.28;;;18.23;100.00
46718;BME280;32448;44.960;-0.698;2023-06-04T02:26:24;101094.50;;;18.21;100.00
46718;BME280;32448;44.960;-0.698;2023-06-04T02:28:52;101094.59;;;18.11;100.00
46718;BME280;32448;44.960;-0.698;2023-06-04T02:31:19;101093.72;;;18.09;100.00
46718;BME280;32448;44.960;-0.698;2023-06-04T02:33:46;101089.31;;;18.05;100.00
46718;BME280;32448;44.960;-0.698;2023-06-04T02:36:13;101090.19;;;18.07;100.00
46718;BME280;32448;44.960;-0.698;2023-06-04T02:38:40;101089.34;;;18.04;100.00
46718;BME280;32448;44.960;-0.698;2023-06-04T02:41:07;101087.63;;;18.00;100.00
46718;BME280;32448;44.960;-0.698;2023-06-04T02:43:36;101086.78;;;17.90;100.00
46718;BME280;32448;44.960;-0.698;2023-06-04T02:46:03;101086.78;;;17.90;100.00
46718;BME280;32448;44.960;-0.698;2023-06-04T02:48:30;101093.00;;;17.88;100.00
46718;BME280;32448;44.960;-0.698;2023-06-04T02:50:57;101100.16;;;17.70;100.00
46718;BME280;32448;44.960;-0.698;2023-06-04T02:53:25;101094.88;;;17.70;100.00
46718;BME280;32448;44.960;-0.698;2023-06-04T02:55:52;101091.34;;;17.71;100.00
46718;BME280;32448;44.960;-0.698;2023-06-04T02:58:19;101102.84;;;17.60;100.00
46718;BME280;32448;44.960;-0.698;2023-06-04T03:00:51;101110.81;;;17.63;100.00
46718;BME280;32448;44.960;-0.698;2023-06-04T03:03:19;101109.03;;;17.60;100.00
46718;BME280;32448;44.960;-0.698;2023-06-04T03:05:46;101107.31;;;17.55;100.00
46718;BME280;32448;44.960;-0.698;2023-06-04T03:08:13;101111.66;;;17.59;100.00
46718;BME280;32448;44.960;-0.698;2023-06-04T03:10:40;101113.44;;;17.60;100.00
46718;BME280;32448;44.960;-0.698;2023-06-04T03:13:07;101117.88;;;17.53;100.00
46718;BME280;32448;44.960;-0.698;2023-06-04T03:15:35;101121.44;;;17.47;100.00
46718;BME280;32448;44.960;-0.698;2023-06-04T03:18:06;101118.78;;;17.47;100.00
46718;BME280;32448;44.960;-0.698;2023-06-04T03:20:33;101118.84;;;17.41;100.00
46718;BME280;32448;44.960;-0.698;2023-06-04T03:23:05;101119.72;;;17.34;100.00
46718;BME280;32448;44.960;-0.698;2023-06-04T03:25:32;101115.38;;;17.30;100.00
46718;BME280;32448;44.960;-0.698;2023-06-04T03:27:59;101124.19;;;17.29;100.00
46718;BME280;32448;44.960;-0.698;2023-06-04T03:30:27;101124.19;;;17.28;100.00
46718;BME280;32448;44.960;-0.698;2023-06-04T03:32:57;101120.66;;;17.32;100.00
46718;BME280;32448;44.960;-0.698;2023-06-04T03:35:25;101123.31;;;17.27;100.00
46718;BME280;32448;44.960;-0.698;2023-06-04T03:37:53;101123.31;;;17.27;100.00
46718;BME280;32448;44.960;-0.698;2023-06-04T03:40:20;101125.94;;;17.33;100.00
46718;BME280;32448;44.960;-0.698;2023-06-04T03:42:48;101130.28;;;17.37;100.00
46718;BME280;32448;44.960;-0.698;2023-06-04T03:45:17;101130.28;;;17.37;100.00
46718;BME280;32448;44.960;-0.698;2023-06-04T03:47:45;101132.06;;;17.37;100.00
46718;BME280;32448;44.960;-0.698;2023-06-04T03:50:13;101135.63;;;17.33;100.00
46718;BME280;32448;44.960;-0.698;2023-06-04T03:52:41;101137.34;;;17.35;100.00
46718;BME280;32448;44.960;-0.698;2023-06-04T03:55:08;101147.91;;;17.38;100.00
46718;BME280;32448;44.960;-0.698;2023-06-04T03:57:39;101152.31;;;17.42;100.00
46718;BME280;32448;44.960;-0.698;2023-06-04T04:00:07;101160.25;;;17.41;100.00
46718;BME280;32448;44.960;-0.698;2023-06-04T04:02:43;101164.66;;;17.42;100.00
46718;BME280;32448;44.960;-0.698;2023-06-04T04:05:19;101158.47;;;17.38;100.00
46718;BME280;32448;44.960;-0.698;2023-06-04T04:07:48;101162.00;;;17.34;100.00
46718;BME280;32448;44.960;-0.698;2023-06-04T04:10:19;101164.66;;;17.34;100.00
46718;BME280;32448;44.960;-0.698;2023-06-04T04:12:46;101166.41;;;17.35;100.00
46718;BME280;32448;44.960;-0.698;2023-06-04T04:15:15;101162.88;;;17.38;100.00
46718;BME280;32448;44.960;-0.698;2023-06-04T04:17:43;101166.47;;;17.32;100.00
46718;BME280;32448;44.960;-0.698;2023-06-04T04:20:11;101159.41;;;17.31;100.00
46718;BME280;32448;44.960;-0.698;2023-06-04T04:22:45;101157.59;;;17.36;100.00
46718;BME280;32448;44.960;-0.698;2023-06-04T04:25:15;101162.00;;;17.40;100.00
46718;BME280;32448;44.960;-0.698;2023-06-04T04:27:42;101153.25;;;17.34;100.00
46718;BME280;32448;44.960;-0.698;2023-06-04T04:30:11;101159.41;;;17.30;100.00
46718;BME280;32448;44.960;-0.698;2023-06-04T04:32:43;101164.66;;;17.36;100.00
46718;BME280;32448;44.960;-0.698;2023-06-04T04:35:22;101153.19;;;17.37;100.00
46718;BME280;32448;44.960;-0.698;2023-06-04T04:37:54;101157.59;;;17.41;100.00
46718;BME280;32448;44.960;-0.698;2023-06-04T04:40:22;101154.91;;;17.45;100.00
46718;BME280;32448;44.960;-0.698;2023-06-04T04:42:50;101160.25;;;17.42;100.00
46718;BME280;32448;44.960;-0.698;2023-06-04T04:45:18;101157.59;;;17.44;100.00
46718;BME280;32448;44.960;-0.698;2023-06-04T04:47:48;101158.47;;;17.41;100.00
46718;BME280;32448;44.960;-0.698;2023-06-04T04:50:19;101154.94;;;17.42;100.00
46718;BME280;32448;44.960;-0.698;2023-06-04T04:52:48;101158.47;;;17.44;100.00
46718;BME280;32448;44.960;-0.698;2023-06-04T04:55:17;101160.19;;;17.48;100.00
46718;BME280;32448;44.960;-0.698;2023-06-04T04:57:47;101153.16;;;17.49;100.00
46718;BME280;32448;44.960;-0.698;2023-06-04T05:00:18;101144.34;;;17.45;100.00
46718;BME280;32448;44.960;-0.698;2023-06-04T05:02:51;101158.47;;;17.40;100.00
46718;BME280;32448;44.960;-0.698;2023-06-04T05:05:18;101157.53;;;17.50;100.00
46718;BME280;32448;44.960;-0.698;2023-06-04T05:07:48;101161.06;;;17.49;100.00
46718;BME280;32448;44.960;-0.698;2023-06-04T05:10:19;101163.66;;;17.57;100.00
46718;BME280;32448;44.960;-0.698;2023-06-04T05:12:51;101159.25;;;17.57;100.00
46718;BME280;32448;44.960;-0.698;2023-06-04T05:15:20;101164.53;;;17.59;100.00
46718;BME280;32448;44.960;-0.698;2023-06-04T05:17:50;101157.47;;;17.61;100.00
46718;BME280;32448;44.960;-0.698;2023-06-04T05:20:20;101165.44;;;17.64;100.00
46718;BME280;32448;44.960;-0.698;2023-06-04T05:22:50;101168.91;;;17.67;100.00
46718;BME280;32448;44.960;-0.698;2023-06-04T05:25:19;101161.00;;;17.61;100.00
46718;BME280;32448;44.960;-0.698;2023-06-04T05:27:48;101162.78;;;17.62;100.00
46718;BME280;32448;44.960;-0.698;2023-06-04T05:30:19;101162.78;;;17.61;100.00
46718;BME280;32448;44.960;-0.698;2023-06-04T05:32:46;101161.00;;;17.61;100.00
46718;BME280;32448;44.960;-0.698;2023-06-04T05:35:15;101164.56;;;17.66;100.00
46718;BME280;32448;44.960;-0.698;2023-06-04T05:37:43;101163.63;;;17.67;100.00
46718;BME280;32448;44.960;-0.698;2023-06-04T05:40:14;101158.34;;;17.70;100.00
46718;BME280;32448;44.960;-0.698;2023-06-04T05:42:47;101155.69;;;17.75;100.00
46718;BME280;32448;44.960;-0.698;2023-06-04T05:45:29;101158.34;;;17.67;100.00
46718;BME280;32448;44.960;-0.698;2023-06-04T05:47:57;101162.75;;;17.71;100.00
46718;BME280;32448;44.960;-0.698;2023-06-04T05:50:28;101166.25;;;17.73;100.00
46718;BME280;32448;44.960;-0.698;2023-06-04T05:52:57;101164.50;;;17.75;100.00
46718;BME280;32448;44.960;-0.698;2023-06-04T05:55:27;101168.84;;;17.81;100.00
46718;BME280;32448;44.960;-0.698;2023-06-04T05:57:56;101175.00;;;17.89;100.00
46718;BME280;32448;44.960;-0.698;2023-06-04T06:00:23;101170.53;;;17.93;100.00
46718;BME280;32448;44.960;-0.698;2023-06-04T06:02:51;101160.84;;;17.92;100.00
46718;BME280;32448;44.960;-0.698;2023-06-04T06:05:30;101164.28;;;18.04;100.00
46718;BME280;32448;44.960;-0.698;2023-06-04T06:07:58;101157.22;;;18.03;100.00
46718;BME280;32448;44.960;-0.698;2023-06-04T06:10:34;101168.69;;;18.04;100.00
46718;BME280;32448;44.960;-0.698;2023-06-04T06:13:16;101164.22;;;18.13;100.00
46718;BME280;32448;44.960;-0.698;2023-06-04T06:15:48;101166.91;;;18.09;100.00
46718;BME280;32448;44.960;-0.698;2023-06-04T06:18:32;101167.72;;;18.17;100.00
46718;BME280;32448;44.960;-0.698;2023-06-04T06:21:07;101168.59;;;18.21;100.00
46718;BME280;32448;44.960;-0.698;2023-06-04T06:23:42;101177.34;;;18.24;100.00
46718;BME280;32448;44.960;-0.698;2023-06-04T06:26:11;101170.28;;;18.28;100.00
46718;BME280;32448;44.960;-0.698;2023-06-04T06:28:50;101167.53;;;18.37;100.00
46718;BME280;32448;44.960;-0.698;2023-06-04T06:31:18;101153.38;;;18.44;100.00
46718;BME280;32448;44.960;-0.698;2023-06-04T06:33:46;101162.09;;;18.55;100.00
46718;BME280;32448;44.960;-0.698;2023-06-04T06:36:13;101166.44;;;18.67;100.00
46718;BME280;32448;44.960;-0.698;2023-06-04T06:38:40;101167.19;;;18.78;100.00
46718;BME280;32448;44.960;-0.698;2023-06-04T06:41:07;101168.88;;;18.88;100.00
46718;BME280;32448;44.960;-0.698;2023-06-04T06:43:35;101166.13;;;18.94;100.00
46718;BME280;32448;44.960;-0.698;2023-06-04T06:46:03;101171.31;;;19.03;100.00
46718;BME280;32448;44.960;-0.698;2023-06-04T06:48:31;101172.03;;;19.19;100.00
46718;BME280;32448;44.960;-0.698;2023-06-04T06:50:58;101169.25;;;19.31;100.00
46718;BME280;32448;44.960;-0.698;2023-06-04T06:53:26;101161.28;;;19.33;100.00
46718;BME280;32448;44.960;-0.698;2023-06-04T06:55:56;101160.25;;;19.41;100.00
46718;BME280;32448;44.960;-0.698;2023-06-04T06:58:23;101165.50;;;19.46;100.00
46718;BME280;32448;44.960;-0.698;2023-06-04T07:00:50;101174.19;;;19.60;100.00
46718;BME280;32448;44.960;-0.698;2023-06-04T07:03:25;101160.56;;;19.86;100.00
46718;BME280;32448;44.960;-0.698;2023-06-04T07:05:59;101169.41;;;19.86;100.00
46718;BME280;32448;44.960;-0.698;2023-06-04T07:08:31;101173.59;;;19.99;100.00
46718;BME280;32448;44.960;-0.698;2023-06-04T07:10:59;101178.78;;;20.09;100.00
46718;BME280;32448;44.960;-0.698;2023-06-04T07:13:30;101165.09;;;20.33;100.00
46718;BME280;32448;44.960;-0.698;2023-06-04T07:16:02;101177.56;;;20.28;100.00
46718;BME280;32448;44.960;-0.698;2023-06-04T07:18:29;101174.66;;;20.45;100.00
46718;BME280;32448;44.960;-0.698;2023-06-04T07:20:58;101175.50;;;20.47;100.00
46718;BME280;32448;44.960;-0.698;2023-06-04T07:23:27;101174.53;;;20.52;100.00
46718;BME280;32448;44.960;-0.698;2023-06-04T07:25:55;101165.63;;;20.55;100.00
46718;BME280;32448;44.960;-0.698;2023-06-04T07:28:22;101174.22;;;20.69;100.00
46718;BME280;32448;44.960;-0.698;2023-06-04T07:30:50;101175.97;;;20.71;100.00
46718;BME280;32448;44.960;-0.698;2023-06-04T07:33:18;101165.44;;;21.12;100.00
46718;BME280;32448;44.960;-0.698;2023-06-04T07:35:47;101171.56;;;21.18;100.00
46718;BME280;32448;44.960;-0.698;2023-06-04T07:38:14;101159.69;;;21.34;100.00
46718;BME280;32448;44.960;-0.698;2023-06-04T07:40:41;101180.28;;;21.23;100.00
46718;BME280;32448;44.960;-0.698;2023-06-04T07:43:09;101170.44;;;21.30;100.00
46718;BME280;32448;44.960;-0.698;2023-06-04T07:45:36;101166.13;;;21.23;100.00
46718;BME280;32448;44.960;-0.698;2023-06-04T07:48:03;101148.97;;;21.37;100.00
46718;BME280;32448;44.960;-0.698;2023-06-04T07:50:30;101163.78;;;21.51;100.00
46718;BME280;32448;44.960;-0.698;2023-06-04T07:53:02;101161.81;;;21.59;100.00
46718;BME280;32448;44.960;-0.698;2023-06-04T07:55:29;101162.75;;;21.56;100.00
46718;BME280;32448;44.960;-0.698;2023-06-04T07:57:56;101169.88;;;21.54;100.00
46718;BME280;32448;44.960;-0.698;2023-06-04T08:00:24;101168.69;;;21.69;100.00
46718;BME280;32448;44.960;-0.698;2023-06-04T08:02:51;101171.25;;;21.73;100.00
46718;BME280;32448;44.960;-0.698;2023-06-04T08:05:19;101169.28;;;21.82;100.00
46718;BME280;32448;44.960;-0.698;2023-06-04T08:07:46;101180.47;;;21.97;100.00
46718;BME280;32448;44.960;-0.698;2023-06-04T08:10:14;101164.50;;;21.96;100.00
46718;BME280;32448;44.960;-0.698;2023-06-04T08:12:41;101174.47;;;22.25;100.00
46718;BME280;32448;44.960;-0.698;2023-06-04T08:15:09;101174.81;;;22.46;100.00
46718;BME280;32448;44.960;-0.698;2023-06-04T08:17:37;101179.28;;;22.46;100.00
46718;BME280;32448;44.960;-0.698;2023-06-04T08:20:05;101177.13;;;22.60;100.00
46718;BME280;32448;44.960;-0.698;2023-06-04T08:22:38;101177.00;;;22.65;100.00
46718;BME280;32448;44.960;-0.698;2023-06-04T08:25:06;101176.78;;;22.74;100.00
46718;BME280;32448;44.960;-0.698;2023-06-04T08:27:33;101188.72;;;22.93;100.00
46718;BME280;32448;44.960;-0.698;2023-06-04T08:30:01;101191.19;;;22.99;100.00
46718;BME280;32448;44.960;-0.698;2023-06-04T08:32:28;101196.88;;;23.19;100.00
46718;BME280;32448;44.960;-0.698;2023-06-04T08:34:56;101193.34;;;23.48;100.00
46718;BME280;32448;44.960;-0.698;2023-06-04T08:37:23;101186.66;;;23.65;100.00
46718;BME280;32448;44.960;-0.698;2023-06-04T08:39:51;101189.84;;;23.46;100.00
46718;BME280;32448;44.960;-0.698;2023-06-04T08:42:24;101181.59;;;23.85;100.00
46718;BME280;32448;44.960;-0.698;2023-06-04T08:44:53;101190.16;;;23.67;100.00
46718;BME280;32448;44.960;-0.698;2023-06-04T08:47:20;101191.34;;;23.56;100.00
46718;BME280;32448;44.960;-0.698;2023-06-04T08:49:50;101192.44;;;23.49;100.00
46718;BME280;32448;44.960;-0.698;2023-06-04T08:52:18;101201.03;;;23.30;100.00
46718;BME280;32448;44.960;-0.698;2023-06-04T08:54:49;101200.66;;;23.42;100.00
46718;BME280;32448;44.960;-0.698;2023-06-04T08:57:20;101204.19;;;23.42;100.00
46718;BME280;32448;44.960;-0.698;2023-06-04T08:59:48;101209.25;;;23.53;100.00
46718;BME280;32448;44.960;-0.698;2023-06-04T09:02:17;101212.38;;;23.36;100.00
46718;BME280;32448;44.960;-0.698;2023-06-04T09:04:44;101196.63;;;23.59;100.00
46718;BME280;32448;44.960;-0.698;2023-06-04T09:07:12;101205.34;;;23.34;100.00
46718;BME280;32448;44.960;-0.698;2023-06-04T09:09:40;101207.97;;;23.35;100.00
46718;BME280;32448;44.960;-0.698;2023-06-04T09:12:09;101204.94;;;23.47;100.00
46718;BME280;32448;44.960;-0.698;2023-06-04T09:14:37;101214.59;;;23.20;100.00
46718;BME280;32448;44.960;-0.698;2023-06-04T09:17:04;101208.97;;;23.31;100.00
46718;BME280;32448;44.960;-0.698;2023-06-04T09:19:32;101199.53;;;23.52;100.00
46718;BME280;32448;44.960;-0.698;2023-06-04T09:21:59;101199.56;;;23.49;100.00
46718;BME280;32448;44.960;-0.698;2023-06-04T09:24:43;101203.97;;;23.51;100.00
46718;BME280;32448;44.960;-0.698;2023-06-04T09:27:13;101194.66;;;23.65;100.00
46718;BME280;32448;44.960;-0.698;2023-06-04T09:29:51;101202.66;;;23.65;100.00
46718;BME280;32448;44.960;-0.698;2023-06-04T09:32:25;101208.22;;;23.86;100.00
46718;BME280;32448;44.960;-0.698;2023-06-04T09:34:54;101213.66;;;23.85;100.00
46718;BME280;32448;44.960;-0.698;2023-06-04T09:37:21;101209.50;;;24.03;100.00
46718;BME280;32448;44.960;-0.698;2023-06-04T09:39:54;101210.97;;;24.13;100.00
46718;BME280;32448;44.960;-0.698;2023-06-04T09:42:22;101209.44;;;24.34;100.00
46718;BME280;32448;44.960;-0.698;2023-06-04T09:44:50;101200.50;;;24.35;100.00
46718;BME280;32448;44.960;-0.698;2023-06-04T09:47:17;101212.44;;;24.51;100.00
46718;BME280;32448;44.960;-0.698;2023-06-04T09:49:45;101224.06;;;24.75;100.00
46718;BME280;32448;44.960;-0.698;2023-06-04T09:52:13;101199.22;;;25.22;100.00
46718;BME280;32448;44.960;-0.698;2023-06-04T09:54:41;101193.66;;;25.03;100.00
46718;BME280;32448;44.960;-0.698;2023-06-04T09:57:15;101190.91;;;25.07;100.00
46718;BME280;32448;44.960;-0.698;2023-06-04T09:59:49;101200.03;;;24.99;100.00
46718;BME280;32448;44.960;-0.698;2023-06-04T10:02:20;101201.13;;;25.19;100.00
46718;BME280;32448;44.960;-0.698;2023-06-04T10:04:54;101203.13;;;25.62;100.00
46718;BME280;32448;44.960;-0.698;2023-06-04T10:07:25;101190.47;;;25.65;100.00
46718;BME280;32448;44.960;-0.698;2023-06-04T10:09:53;101191.81;;;25.99;100.00
46718;BME280;32448;44.960;-0.698;2023-06-04T10:12:23;101193.97;;;25.19;100.00
46718;BME280;32448;44.960;-0.698;2023-06-04T10:14:53;101204.13;;;25.34;100.00
46718;BME280;32448;44.960;-0.698;2023-06-04T10:17:23;101193.34;;;25.61;100.00
46718;BME280;32448;44.960;-0.698;2023-06-04T10:19:52;101189.22;;;25.74;100.00
46718;BME280;32448;44.960;-0.698;2023-06-04T10:22:21;101196.59;;;25.69;100.00
46718;BME280;32448;44.960;-0.698;2023-06-04T10:24:48;101196.72;;;25.88;100.00
46718;BME280;32448;44.960;-0.698;2023-06-04T10:27:19;101195.03;;;26.07;100.00
46718;BME280;32448;44.960;-0.698;2023-06-04T10:29:47;101197.06;;;26.02;100.00
46718;BME280;32448;44.960;-0.698;2023-06-04T10:32:16;101197.66;;;26.08;100.00
46718;BME280;32448;44.960;-0.698;2023-06-04T10:34:43;101196.66;;;26.34;100.00
46718;BME280;32448;44.960;-0.698;2023-06-04T10:37:25;101193.94;;;26.56;100.00
46718;BME280;32448;44.960;-0.698;2023-06-04T10:39:56;101186.84;;;26.33;100.00
46718;BME280;32448;44.960;-0.698;2023-06-04T10:42:25;101196.25;;;26.43;100.00
46718;BME280;32448;44.960;-0.698;2023-06-04T10:44:58;101192.13;;;26.77;100.00
46718;BME280;32448;44.960;-0.698;2023-06-04T10:47:29;101185.03;;;26.76;100.00
46718;BME280;32448;44.960;-0.698;2023-06-04T10:50:09;101188.25;;;27.25;100.00
46718;BME280;32448;44.960;-0.698;2023-06-04T10:52:54;101189.25;;;27.22;100.00
46718;BME280;32448;44.960;-0.698;2023-06-04T10:55:23;101185.44;;;27.28;100.00
46718;BME280;32448;44.960;-0.698;2023-06-04T10:57:51;101184.84;;;27.40;100.00
46718;BME280;32448;44.960;-0.698;2023-06-04T11:00:19;101185.06;;;27.16;100.00
46718;BME280;32448;44.960;-0.698;2023-06-04T11:02:50;101182.16;;;27.40;100.00
46718;BME280;32448;44.960;-0.698;2023-06-04T11:05:18;101174.91;;;27.42;100.00
46718;BME280;32448;44.960;-0.698;2023-06-04T11:07:48;101180.06;;;27.46;100.00
46718;BME280;32448;44.960;-0.698;2023-06-04T11:10:16;101182.28;;;27.76;100.00
46718;BME280;32448;44.960;-0.698;2023-06-04T11:12:44;101170.16;;;27.09;100.00
46718;BME280;32448;44.960;-0.698;2023-06-04T11:15:12;101166.75;;;27.64;100.00
46718;BME280;32448;44.960;-0.698;2023-06-04T11:17:53;101171.31;;;27.62;100.00
46718;BME280;32448;44.960;-0.698;2023-06-04T11:20:21;101166.91;;;27.79;100.00
46718;BME280;32448;44.960;-0.698;2023-06-04T11:22:53;101168.59;;;27.43;100.00
46718;BME280;32448;44.960;-0.698;2023-06-04T11:25:20;101159.34;;;27.50;100.00
46718;BME280;32448;44.960;-0.698;2023-06-04T11:27:49;101156.25;;;27.59;100.00
46718;BME280;32448;44.960;-0.698;2023-06-04T11:30:17;101153.16;;;27.48;100.00
46718;BME280;32448;44.960;-0.698;2023-06-04T11:32:44;101147.84;;;27.46;100.00
46718;BME280;32448;44.960;-0.698;2023-06-04T11:35:12;101146.88;;;27.68;100.00
46718;BME280;32448;44.960;-0.698;2023-06-04T11:37:40;101145.75;;;27.53;100.00
46718;BME280;32448;44.960;-0.698;2023-06-04T11:40:20;101141.81;;;27.98;100.00
46718;BME280;32448;44.960;-0.698;2023-06-04T11:42:59;101136.16;;;27.85;100.00
46718;BME280;32448;44.960;-0.698;2023-06-04T11:45:26;101140.16;;;27.76;100.00
46718;BME280;32448;44.960;-0.698;2023-06-04T11:47:57;101137.44;;;27.95;100.00
46718;BME280;32448;44.960;-0.698;2023-06-04T11:50:28;101131.72;;;28.39;100.00
46718;BME280;32448;44.960;-0.698;2023-06-04T11:52:56;101142.63;;;28.36;100.00
46718;BME280;32448;44.960;-0.698;2023-06-04T11:55:23;101140.63;;;28.22;100.00
46718;BME280;32448;44.960;-0.698;2023-06-04T11:57:52;101139.59;;;28.06;100.00
46718;BME280;32448;44.960;-0.698;2023-06-04T12:00:20;101144.41;;;27.99;100.00
46718;BME280;32448;44.960;-0.698;2023-06-04T12:02:54;101140.97;;;27.78;100.00
46718;BME280;32448;44.960;-0.698;2023-06-04T12:05:29;101135.56;;;27.97;100.00
46718;BME280;32448;44.960;-0.698;2023-06-04T12:08:04;101130.59;;;28.07;100.00
46718;BME280;32448;44.960;-0.698;2023-06-04T12:10:40;101118.34;;;28.01;100.00
46718;BME280;32448;44.960;-0.698;2023-06-04T12:13:10;101118.31;;;28.54;100.00
46718;BME280;32448;44.960;-0.698;2023-06-04T12:15:38;101111.97;;;28.90;100.00
46718;BME280;32448;44.960;-0.698;2023-06-04T12:18:06;101111.78;;;28.60;100.00
46718;BME280;32448;44.960;-0.698;2023-06-04T12:20:34;101100.56;;;29.02;100.00
46718;BME280;32448;44.960;-0.698;2023-06-04T12:23:03;101099.81;;;29.31;100.00
46718;BME280;32448;44.960;-0.698;2023-06-04T12:25:35;101108.03;;;29.13;100.00
46718;BME280;32448;44.960;-0.698;2023-06-04T12:28:16;101115.53;;;29.23;100.00
46718;BME280;32448;44.960;-0.698;2023-06-04T12:30:47;101117.56;;;29.36;100.00
46718;BME280;32448;44.960;-0.698;2023-06-04T12:33:14;101113.03;;;29.83;100.00
46718;BME280;32448;44.960;-0.698;2023-06-04T12:35:43;101116.56;;;29.69;100.00
46718;BME280;32448;44.960;-0.698;2023-06-04T12:38:12;101104.19;;;29.65;100.00
46718;BME280;32448;44.960;-0.698;2023-06-04T12:40:43;101093.50;;;29.00;100.00
46718;BME280;32448;44.960;-0.698;2023-06-04T12:43:12;101093.13;;;28.73;100.00
46718;BME280;32448;44.960;-0.698;2023-06-04T12:45:43;101097.31;;;28.09;100.00